Weather at Bad Kleinkircheim Heliport

Public forecast

Using degrees Celsius for public forecast. Weather courtesy of forecast.io.

Closest aviation weather report (METAR) to Bad Kleinkircheim Heliport

Closest report is Klagenfurt Airport, 25.0 nm (46.2 km) ESE.

2024/05/24 01:20 (retrieved 14 minutes ago)

LOWK 240120Z AUTO VRB02KT 5000 BR FEW009 11/10 Q1018

Closest aviation forecast (TAF) to Bad Kleinkircheim Heliport

Forecast is more than 6 hours old.

Closest forecast is Bolzano Airport, 103.5 nm (191.7 km) W.

2024/05/23 18:18 (retrieved 7 hours ago)

TAF LIPB 232110Z 2318/2418 CNL